SLRI/RIB METAR and TAF weather

Enter ICAO airport designator
Station Type Date Time Source
SLRI METAR 2021/09/25 13:00 UTC NOAA

SLRI 251300Z 00000KT 2000 FU BKN006 24/22 Q1017


Station Type Date Time Source
SLRI Decoded METAR 2021/09/25 13:00 UTC NOAA

Riberalta, Bolivia (SLRI) 11-00S 066-07W
Sep 25, 2021 - 09:00 AM EDT / 2021.09.25 1300 UTC
Wind: Calm:0
Visibility: 1 mile(s):0
Sky conditions: mostly cloudy
Weather: smoke
Temperature: 75 F (24 C)
Dew Point: 71 F (22 C)
Relative Humidity: 88%
Pressure (altimeter): 30.03 in. Hg (1017 hPa)
ob: SLRI 251300Z 00000KT 2000 FU BKN006 24/22 Q1017
cycle: 13

Station Type Date Time Source
SLRI TAF 2015/11/18 00:29 UTC NOAA

TAF SLRI 182200Z 1900/1924 00000KT 9999 FEW015 TX37/1919Z TN23/1910Z
BECMG 1912/1914 33011KT SCT020
TEMPO 1919/1922 8000 VCSH FEW020 FEW023CB BKN080

Example: see airport list